createdAt,value
2023-02-02T00:01:41.470Z,4.90
2023-02-02T00:04:16.086Z,4.90
2023-02-02T00:06:44.426Z,4.90
2023-02-02T00:09:14.054Z,4.90
2023-02-02T00:11:43.240Z,4.90
2023-02-02T00:14:12.915Z,4.90
2023-02-02T00:16:43.972Z,4.80
2023-02-02T00:19:15.134Z,4.90
2023-02-02T00:21:43.610Z,4.80
2023-02-02T00:24:13.347Z,4.80
2023-02-02T00:26:43.212Z,4.80
2023-02-02T00:29:16.642Z,4.80
2023-02-02T00:31:44.880Z,4.80
2023-02-02T00:34:13.763Z,4.80
2023-02-02T00:36:42.823Z,4.80
2023-02-02T00:39:12.346Z,4.80
2023-02-02T00:41:40.626Z,4.80
2023-02-02T00:44:26.031Z,4.90
2023-02-02T00:46:55.567Z,4.90
2023-02-02T00:49:24.091Z,4.90
2023-02-02T00:51:52.235Z,4.90
2023-02-02T00:54:20.399Z,4.90
2023-02-02T00:56:49.197Z,4.90
2023-02-02T00:59:17.591Z,5.00
2023-02-02T01:01:45.708Z,5.00
2023-02-02T01:04:15.604Z,5.00
2023-02-02T01:06:43.658Z,5.10
2023-02-02T01:09:11.794Z,5.10
2023-02-02T01:11:39.919Z,5.00
2023-02-02T01:14:08.115Z,5.00
2023-02-02T01:16:36.453Z,5.00
2023-02-02T01:19:04.551Z,5.00
2023-02-02T01:21:34.096Z,5.00
2023-02-02T01:24:02.515Z,5.00
2023-02-02T01:26:30.879Z,5.00
2023-02-02T01:28:59.102Z,4.90
2023-02-02T01:31:27.511Z,4.90
2023-02-02T01:33:55.641Z,5.00
2023-02-02T01:36:25.251Z,5.00
2023-02-02T01:38:55.119Z,5.00
2023-02-02T01:41:25.870Z,5.00
2023-02-02T01:43:57.410Z,5.00
2023-02-02T01:46:28.191Z,5.00
2023-02-02T01:49:05.262Z,5.00
2023-02-02T01:51:42.366Z,5.00
2023-02-02T01:54:17.098Z,5.00
2023-02-02T01:56:48.547Z,5.00
2023-02-02T01:59:18.327Z,5.00
2023-02-02T02:01:49.622Z,4.90
2023-02-02T02:04:18.148Z,4.90
2023-02-02T02:06:48.227Z,4.90
2023-02-02T02:09:18.753Z,4.90
2023-02-02T02:11:47.020Z,5.00
2023-02-02T02:14:34.849Z,5.00
2023-02-02T02:17:17.738Z,4.90
2023-02-02T02:20:54.099Z,4.90
2023-02-02T02:24:23.615Z,4.90
2023-02-02T02:27:14.615Z,4.90
2023-02-02T02:30:37.409Z,4.90
2023-02-02T02:33:12.254Z,5.00
2023-02-02T02:35:51.227Z,5.00
2023-02-02T02:38:30.711Z,5.00
2023-02-02T02:41:04.814Z,5.00
2023-02-02T02:43:36.236Z,5.00
2023-02-02T02:46:06.148Z,5.00
2023-02-02T02:48:36.349Z,5.00
2023-02-02T02:51:09.020Z,5.00
2023-02-02T02:53:38.808Z,5.00
2023-02-02T02:56:18.747Z,5.10
2023-02-02T02:58:53.497Z,5.00
2023-02-02T03:01:28.157Z,5.00
2023-02-02T03:04:11.078Z,5.00
2023-02-02T03:06:46.384Z,5.00
2023-02-02T03:09:19.721Z,5.10
2023-02-02T03:11:48.105Z,5.00
2023-02-02T03:14:16.367Z,5.00
2023-02-02T03:16:44.767Z,5.00
2023-02-02T03:19:14.652Z,5.00
2023-02-02T03:21:42.739Z,5.00
2023-02-02T03:24:10.789Z,5.00
2023-02-02T03:26:39.552Z,5.00
2023-02-02T03:29:07.913Z,5.00
2023-02-02T03:31:36.375Z,5.00
2023-02-02T03:34:04.947Z,5.00
2023-02-02T03:36:34.423Z,5.00
2023-02-02T03:39:02.579Z,4.90
2023-02-02T03:41:30.674Z,4.90
2023-02-02T03:43:58.976Z,4.90
2023-02-02T03:46:27.124Z,4.90
2023-02-02T03:48:55.468Z,4.80
2023-02-02T03:51:23.828Z,4.80
2023-02-02T03:53:53.301Z,4.80
2023-02-02T03:56:21.671Z,4.90
2023-02-02T03:58:49.771Z,4.90
2023-02-02T04:01:18.217Z,4.80
2023-02-02T04:03:47.022Z,4.80
2023-02-02T04:06:15.110Z,4.80
2023-02-02T04:08:43.216Z,4.80
2023-02-02T04:11:13.197Z,4.80
2023-02-02T04:13:43.385Z,4.80
2023-02-02T04:16:13.694Z,4.80
2023-02-02T04:18:41.839Z,4.80
2023-02-02T04:21:10.245Z,4.80
2023-02-02T04:23:38.537Z,4.80
2023-02-02T04:26:07.338Z,4.80
2023-02-02T04:28:37.036Z,4.80
2023-02-02T04:31:05.775Z,4.90
2023-02-02T04:33:36.279Z,4.90
2023-02-02T04:36:05.413Z,4.90
2023-02-02T04:38:33.522Z,4.90
2023-02-02T04:41:08.362Z,4.80
2023-02-02T04:43:38.868Z,4.90
2023-02-02T04:46:07.678Z,4.90
2023-02-02T04:48:35.804Z,4.80
2023-02-02T04:51:05.283Z,4.90
2023-02-02T04:53:34.017Z,4.80
2023-02-02T04:56:07.380Z,4.80
2023-02-02T04:58:37.091Z,4.80
2023-02-02T05:01:10.440Z,4.70
2023-02-02T05:03:39.040Z,4.70
2023-02-02T05:06:07.846Z,4.70
2023-02-02T05:08:36.313Z,4.70
2023-02-02T05:11:08.087Z,4.70
2023-02-02T05:13:37.804Z,4.60
2023-02-02T05:16:06.702Z,4.70
2023-02-02T05:18:35.124Z,4.70
2023-02-02T05:21:04.410Z,4.70
2023-02-02T05:23:32.512Z,4.70
2023-02-02T05:26:00.835Z,4.70
2023-02-02T05:28:29.405Z,4.70
2023-02-02T05:30:59.027Z,4.60
2023-02-02T05:33:27.486Z,4.60
2023-02-02T05:35:55.551Z,4.50
2023-02-02T05:38:23.603Z,4.50
2023-02-02T05:40:52.068Z,4.50
2023-02-02T05:43:21.651Z,4.50
2023-02-02T05:45:49.827Z,4.50
2023-02-02T05:48:19.319Z,4.50
2023-02-02T05:50:51.032Z,4.40
2023-02-02T05:53:19.141Z,4.40
2023-02-02T05:55:47.256Z,4.40
2023-02-02T05:58:15.633Z,4.40
2023-02-02T06:00:43.700Z,4.40
2023-02-02T06:03:13.093Z,4.40
2023-02-02T06:05:42.867Z,4.50
2023-02-02T06:08:10.942Z,4.50
2023-02-02T06:10:40.864Z,4.40
2023-02-02T06:13:09.204Z,4.40
2023-02-02T06:15:37.780Z,4.40
2023-02-02T06:18:08.597Z,4.40
2023-02-02T06:20:37.560Z,4.40
2023-02-02T06:23:07.827Z,4.30
2023-02-02T06:25:35.901Z,4.30
2023-02-02T06:28:04.638Z,4.30
2023-02-02T06:30:32.838Z,4.30
2023-02-02T06:33:02.150Z,4.40
2023-02-02T06:35:30.274Z,4.40
2023-02-02T06:37:59.415Z,4.50
2023-02-02T06:40:29.798Z,4.50
2023-02-02T06:42:58.592Z,4.40
2023-02-02T06:45:27.710Z,4.40
2023-02-02T06:48:00.655Z,4.40
2023-02-02T06:50:28.958Z,4.40
2023-02-02T06:52:57.101Z,4.40
2023-02-02T06:55:25.399Z,4.40
2023-02-02T06:57:59.238Z,4.40
2023-02-02T07:00:27.774Z,4.40
2023-02-02T07:02:56.159Z,4.50
2023-02-02T07:05:24.859Z,4.50
2023-02-02T07:07:53.532Z,4.50
2023-02-02T07:11:13.389Z,4.50
2023-02-02T07:13:11.654Z,4.50
2023-02-02T07:15:40.555Z,4.50
2023-02-02T07:18:09.178Z,4.50
2023-02-02T07:20:37.410Z,4.50
2023-02-02T07:23:05.862Z,4.50
2023-02-02T07:25:33.947Z,4.50
2023-02-02T07:28:02.312Z,4.50
2023-02-02T07:30:31.856Z,4.50
2023-02-02T07:33:00.620Z,4.60
2023-02-02T07:35:29.044Z,4.50
2023-02-02T07:37:57.429Z,4.60
2023-02-02T07:40:25.488Z,4.60
2023-02-02T07:42:53.869Z,4.60
2023-02-02T07:45:27.585Z,4.60
2023-02-02T07:48:06.466Z,4.70
2023-02-02T07:50:34.574Z,4.70
2023-02-02T07:53:02.677Z,4.70
2023-02-02T07:55:31.329Z,4.80
2023-02-02T07:57:59.606Z,4.80
2023-02-02T08:00:28.131Z,4.80
2023-02-02T08:02:56.603Z,4.80
2023-02-02T08:05:27.095Z,4.80
2023-02-02T08:07:55.331Z,4.90
2023-02-02T08:10:23.406Z,4.90
2023-02-02T08:12:51.791Z,4.90
2023-02-02T08:15:19.882Z,4.90
2023-02-02T08:17:50.015Z,5.00
2023-02-02T08:20:18.441Z,5.00
2023-02-02T08:22:48.107Z,5.00
2023-02-02T08:25:16.299Z,5.00
2023-02-02T08:27:44.407Z,5.00
2023-02-02T08:30:13.752Z,5.10
2023-02-02T08:32:42.082Z,5.10
2023-02-02T08:35:10.477Z,5.10
2023-02-02T08:37:38.565Z,5.10
2023-02-02T08:40:10.293Z,5.10
2023-02-02T08:42:38.389Z,5.10
2023-02-02T08:46:03.094Z,5.10
2023-02-02T08:48:10.403Z,5.20
2023-02-02T08:50:39.840Z,5.30
2023-02-02T08:53:08.582Z,5.30
2023-02-02T08:55:38.051Z,5.40
2023-02-02T08:58:06.357Z,5.40
2023-02-02T09:00:34.423Z,5.40
2023-02-02T09:03:02.841Z,5.50
2023-02-02T09:05:30.921Z,5.50
2023-02-02T09:07:59.609Z,5.50
2023-02-02T09:10:27.846Z,5.60
2023-02-02T09:12:57.579Z,5.70
2023-02-02T09:15:25.955Z,5.70
2023-02-02T09:17:54.192Z,5.70
2023-02-02T09:20:22.585Z,5.80
2023-02-02T09:22:50.958Z,5.90
2023-02-02T09:25:19.021Z,5.90
2023-02-02T09:27:47.398Z,5.90
2023-02-02T09:30:17.929Z,5.90
2023-02-02T09:32:46.067Z,6.40
2023-02-02T09:35:14.709Z,6.30
2023-02-02T09:37:44.579Z,6.20
2023-02-02T09:40:18.983Z,6.30
2023-02-02T09:43:01.638Z,6.30
2023-02-02T09:45:39.946Z,6.30
2023-02-02T09:48:26.247Z,6.20
2023-02-02T09:50:57.434Z,6.20
2023-02-02T09:53:38.461Z,6.30
2023-02-02T09:56:19.909Z,6.30
2023-02-02T09:58:53.704Z,6.50
2023-02-02T10:01:26.760Z,6.50
2023-02-02T10:04:03.222Z,6.50
2023-02-02T10:06:37.671Z,6.60
2023-02-02T10:09:18.895Z,6.50
2023-02-02T10:11:51.839Z,6.60
2023-02-02T10:14:25.298Z,6.60
2023-02-02T10:16:57.892Z,6.60
2023-02-02T10:19:29.567Z,6.90
2023-02-02T10:22:06.502Z,7.10
2023-02-02T10:24:36.457Z,7.20
2023-02-02T10:27:07.149Z,7.40
2023-02-02T10:29:49.156Z,7.60
2023-02-02T10:32:24.415Z,8.00
2023-02-02T10:35:14.331Z,7.90
2023-02-02T10:37:50.256Z,7.90
2023-02-02T10:40:29.546Z,7.60
2023-02-02T10:43:33.579Z,7.40
2023-02-02T10:46:05.240Z,7.40
2023-02-02T10:48:37.047Z,7.50
2023-02-02T10:51:12.656Z,7.60
2023-02-02T10:53:41.335Z,7.60
2023-02-02T10:56:13.805Z,7.60
2023-02-02T10:58:49.484Z,7.60
2023-02-02T11:01:18.584Z,7.60
2023-02-02T11:03:48.544Z,7.60
2023-02-02T11:06:35.114Z,7.60
2023-02-02T11:09:05.041Z,7.50
2023-02-02T11:11:39.860Z,7.50
2023-02-02T11:14:17.053Z,7.60
2023-02-02T11:16:46.811Z,8.00
2023-02-02T11:19:30.771Z,8.50
2023-02-02T11:22:00.484Z,8.40
2023-02-02T11:24:30.592Z,8.20
2023-02-02T11:27:02.553Z,8.30
2023-02-02T11:29:37.242Z,8.30
2023-02-02T11:32:20.463Z,8.60
2023-02-02T11:34:49.952Z,8.60
2023-02-02T11:37:23.647Z,8.70
2023-02-02T11:39:53.812Z,8.50
2023-02-02T11:42:24.497Z,8.40
2023-02-02T11:44:54.704Z,8.40
2023-02-02T11:47:27.803Z,8.40
2023-02-02T11:50:00.450Z,8.30
2023-02-02T11:52:32.904Z,8.30
2023-02-02T11:55:03.217Z,8.20
2023-02-02T11:57:31.706Z,7.90
2023-02-02T12:00:18.950Z,8.00
2023-02-02T12:02:48.242Z,8.20
2023-02-02T12:05:36.059Z,8.20
2023-02-02T12:08:05.010Z,8.50
2023-02-02T12:10:40.959Z,8.40
2023-02-02T12:13:15.824Z,8.60
2023-02-02T12:15:52.743Z,8.60
2023-02-02T12:18:41.207Z,8.70
2023-02-02T12:21:16.056Z,8.50
2023-02-02T12:24:00.082Z,8.40
2023-02-02T12:26:31.676Z,8.30
2023-02-02T12:29:23.106Z,8.40
2023-02-02T12:32:07.010Z,8.20
2023-02-02T12:34:48.529Z,8.40
2023-02-02T12:37:28.831Z,8.40
2023-02-02T12:40:18.643Z,8.30
2023-02-02T12:42:57.399Z,8.40
2023-02-02T12:45:48.919Z,8.30
2023-02-02T12:48:33.503Z,8.20
2023-02-02T12:51:14.355Z,8.20
2023-02-02T12:54:33.484Z,8.10
2023-02-02T12:57:00.560Z,8.10
2023-02-02T12:59:52.610Z,8.10
2023-02-02T13:02:29.870Z,8.40
2023-02-02T13:05:08.273Z,8.30
2023-02-02T13:07:41.976Z,8.40
2023-02-02T13:10:19.797Z,8.30
2023-02-02T13:12:54.878Z,8.30
2023-02-02T13:15:25.241Z,8.20
2023-02-02T13:17:56.092Z,8.20
2023-02-02T13:20:39.417Z,8.20
2023-02-02T13:23:12.236Z,8.10
2023-02-02T13:25:48.996Z,8.30
2023-02-02T13:28:32.334Z,8.30
2023-02-02T13:31:06.654Z,8.40
2023-02-02T13:33:37.958Z,8.40
2023-02-02T13:36:12.132Z,8.40
2023-02-02T13:38:42.421Z,8.40
2023-02-02T13:41:14.143Z,8.50
2023-02-02T13:43:52.925Z,8.60
2023-02-02T13:46:29.640Z,8.60
2023-02-02T13:49:10.261Z,8.60
2023-02-02T13:51:50.074Z,8.60
2023-02-02T13:55:04.789Z,8.60
2023-02-02T13:58:11.792Z,8.50
2023-02-02T14:00:46.455Z,8.50
2023-02-02T14:03:34.039Z,8.40
2023-02-02T14:06:08.542Z,8.40
2023-02-02T14:08:37.617Z,8.40
2023-02-02T14:11:08.824Z,8.40
2023-02-02T14:14:04.151Z,8.40
2023-02-02T14:16:47.939Z,8.20
2023-02-02T14:19:18.229Z,8.20
2023-02-02T14:22:06.552Z,8.20
2023-02-02T14:24:46.913Z,8.30
2023-02-02T14:27:57.860Z,8.20
2023-02-02T14:30:36.275Z,8.00
2023-02-02T14:33:40.774Z,8.10
2023-02-02T14:36:15.419Z,8.10
2023-02-02T14:39:19.739Z,7.90
2023-02-02T14:42:27.646Z,7.80
2023-02-02T14:45:24.229Z,7.80
2023-02-02T14:47:55.837Z,7.80
2023-02-02T14:50:41.903Z,7.60
2023-02-02T14:53:23.681Z,7.60
2023-02-02T14:55:56.880Z,7.80
2023-02-02T14:58:28.878Z,7.50
2023-02-02T15:01:01.121Z,7.50
2023-02-02T15:03:47.713Z,7.60
2023-02-02T15:06:27.941Z,7.50
2023-02-02T15:09:33.756Z,7.50
2023-02-02T15:12:30.838Z,7.60
2023-02-02T15:15:13.326Z,7.50
2023-02-02T15:17:53.498Z,7.60
2023-02-02T15:20:29.622Z,7.50
2023-02-02T15:23:01.999Z,7.60
2023-02-02T15:25:34.869Z,7.40
2023-02-02T15:28:11.592Z,7.30
2023-02-02T15:30:44.734Z,7.40
2023-02-02T15:33:28.192Z,7.40
2023-02-02T15:36:03.557Z,7.40
2023-02-02T15:38:35.791Z,7.40
2023-02-02T15:41:15.420Z,7.30
2023-02-02T15:43:44.829Z,7.10
2023-02-02T15:46:24.323Z,7.00
2023-02-02T15:49:32.776Z,7.10
2023-02-02T15:52:12.872Z,6.90
2023-02-02T15:54:51.866Z,6.90
2023-02-02T15:57:28.279Z,6.90
2023-02-02T15:59:57.180Z,6.90
2023-02-02T16:02:33.145Z,7.00
2023-02-02T16:05:01.217Z,6.70
2023-02-02T16:07:35.159Z,6.70
2023-02-02T16:10:05.731Z,6.80
2023-02-02T16:12:35.758Z,6.80
2023-02-02T16:15:04.000Z,6.80
2023-02-02T16:17:33.653Z,6.70
2023-02-02T16:20:04.466Z,6.70
2023-02-02T16:22:34.680Z,6.60
2023-02-02T16:25:07.138Z,6.60
2023-02-02T16:27:35.731Z,6.60
2023-02-02T16:30:07.243Z,6.50
2023-02-02T16:32:39.298Z,6.40
2023-02-02T16:35:25.912Z,6.30
2023-02-02T16:38:13.408Z,6.30
2023-02-02T16:40:42.361Z,6.20
2023-02-02T16:43:20.297Z,6.20
2023-02-02T16:45:51.117Z,6.10
2023-02-02T16:48:30.687Z,6.10
2023-02-02T16:51:12.633Z,6.00
2023-02-02T16:53:42.677Z,6.00
2023-02-02T16:56:12.936Z,6.00
2023-02-02T16:58:45.861Z,5.90
2023-02-02T17:01:16.522Z,5.90
2023-02-02T17:03:51.967Z,5.90
2023-02-02T17:06:38.724Z,5.90
2023-02-02T17:09:34.058Z,5.80
2023-02-02T17:12:12.217Z,5.80
2023-02-02T17:14:53.568Z,5.80
2023-02-02T17:17:22.186Z,5.70
2023-02-02T17:19:50.357Z,5.70
2023-02-02T17:22:22.313Z,5.60
2023-02-02T17:24:53.674Z,5.60
2023-02-02T17:27:28.732Z,5.60
2023-02-02T17:29:58.245Z,5.60
2023-02-02T17:32:26.978Z,5.60
2023-02-02T17:34:55.378Z,5.60
2023-02-02T17:37:23.982Z,5.60
2023-02-02T17:39:54.066Z,5.60
2023-02-02T17:42:26.428Z,5.60
2023-02-02T17:44:55.056Z,5.60
2023-02-02T17:47:23.170Z,5.60
2023-02-02T17:49:51.583Z,5.50
2023-02-02T17:52:19.873Z,5.50
2023-02-02T17:54:47.974Z,5.50
2023-02-02T17:57:17.646Z,5.50
2023-02-02T17:59:45.735Z,5.50
2023-02-02T18:02:16.586Z,5.40
2023-02-02T18:04:45.810Z,5.50
2023-02-02T18:07:14.463Z,5.50
2023-02-02T18:09:42.817Z,5.50
2023-02-02T18:12:11.389Z,5.50
2023-02-02T18:14:41.050Z,5.50
2023-02-02T18:17:09.391Z,5.50
2023-02-02T18:19:39.297Z,5.50
2023-02-02T18:22:07.721Z,5.50
2023-02-02T18:24:35.822Z,5.50
2023-02-02T18:27:04.253Z,5.40
2023-02-02T18:29:32.459Z,5.50
2023-02-02T18:32:02.301Z,5.40
2023-02-02T18:34:31.646Z,5.50
2023-02-02T18:36:59.973Z,5.40
2023-02-02T18:39:28.220Z,5.40
2023-02-02T18:41:56.366Z,5.50
2023-02-02T18:44:24.985Z,5.50
2023-02-02T18:46:53.667Z,5.40
2023-02-02T18:49:23.371Z,5.40
2023-02-02T18:51:51.476Z,5.40
2023-02-02T18:54:19.712Z,5.50
2023-02-02T18:56:47.795Z,5.60
2023-02-02T18:59:16.371Z,5.60
2023-02-02T19:01:44.516Z,5.50
2023-02-02T19:04:12.758Z,5.50
2023-02-02T19:07:00.007Z,5.60
2023-02-02T19:09:28.102Z,5.60
2023-02-02T19:11:56.358Z,5.50
2023-02-02T19:14:28.550Z,5.60
2023-02-02T19:17:01.563Z,5.60
2023-02-02T19:19:33.220Z,5.60
2023-02-02T19:22:08.066Z,5.60
2023-02-02T19:24:39.840Z,5.60
2023-02-02T19:27:18.075Z,5.60
2023-02-02T19:29:47.458Z,5.60
2023-02-02T19:32:21.733Z,5.60
2023-02-02T19:34:50.938Z,5.60
2023-02-02T19:37:25.878Z,5.70
2023-02-02T19:39:56.712Z,5.70
2023-02-02T19:42:25.130Z,5.60
2023-02-02T19:44:54.251Z,5.70
2023-02-02T19:47:29.539Z,5.70
2023-02-02T19:49:58.142Z,5.70
2023-02-02T19:52:28.152Z,5.70
2023-02-02T19:54:56.281Z,5.70
2023-02-02T19:57:33.355Z,5.70
2023-02-02T20:00:12.411Z,5.70
2023-02-02T20:02:53.221Z,5.70
2023-02-02T20:05:23.148Z,5.70
2023-02-02T20:07:57.725Z,5.60
2023-02-02T20:10:28.649Z,5.60
2023-02-02T20:12:57.041Z,5.60
2023-02-02T20:15:36.689Z,5.60
2023-02-02T20:18:07.185Z,5.60
2023-02-02T20:20:39.989Z,5.60
2023-02-02T20:23:24.045Z,5.60
2023-02-02T20:25:52.207Z,5.60
2023-02-02T20:28:33.233Z,5.60
2023-02-02T20:31:04.297Z,5.60
2023-02-02T20:33:33.576Z,5.60
2023-02-02T20:36:03.094Z,5.60
2023-02-02T20:38:39.827Z,5.60
2023-02-02T20:41:07.947Z,5.60
2023-02-02T20:43:36.458Z,5.60
2023-02-02T20:46:04.921Z,5.50
2023-02-02T20:48:33.328Z,5.60
2023-02-02T20:51:01.415Z,5.60
2023-02-02T20:53:29.823Z,5.60
2023-02-02T20:56:02.401Z,5.60
2023-02-02T20:58:30.576Z,5.60
2023-02-02T21:01:00.297Z,5.50
2023-02-02T21:03:28.685Z,5.60
2023-02-02T21:05:56.805Z,5.50
2023-02-02T21:08:25.242Z,5.40
2023-02-02T21:10:53.335Z,5.40
2023-02-02T21:13:23.137Z,5.40
2023-02-02T21:15:51.214Z,5.40
2023-02-02T21:18:19.616Z,5.30
2023-02-02T21:20:47.749Z,5.30
2023-02-02T21:23:16.754Z,5.40
2023-02-02T21:25:44.896Z,5.40
2023-02-02T21:28:13.264Z,5.40
2023-02-02T21:30:43.048Z,5.30
2023-02-02T21:33:12.235Z,5.40
2023-02-02T21:35:40.394Z,5.40
2023-02-02T21:38:14.460Z,5.30
2023-02-02T21:40:43.568Z,5.20
2023-02-02T21:43:17.566Z,5.20
2023-02-02T21:45:51.220Z,5.20
2023-02-02T21:48:28.716Z,5.10
2023-02-02T21:50:58.086Z,5.00
2023-02-02T21:53:28.591Z,5.10
2023-02-02T21:55:59.445Z,4.80
2023-02-02T21:58:33.468Z,4.70
2023-02-02T22:01:19.007Z,4.90
2023-02-02T22:03:49.971Z,5.00
2023-02-02T22:06:28.860Z,4.90
2023-02-02T22:09:02.973Z,5.00
2023-02-02T22:11:38.361Z,5.00
2023-02-02T22:14:18.601Z,5.00
2023-02-02T22:16:50.301Z,4.90
2023-02-02T22:19:30.686Z,4.90
2023-02-02T22:22:18.227Z,4.70
2023-02-02T22:24:47.594Z,4.70
2023-02-02T22:27:21.531Z,4.70
2023-02-02T22:29:50.431Z,4.80
2023-02-02T22:32:19.884Z,4.70
2023-02-02T22:34:48.008Z,4.60
2023-02-02T22:37:16.089Z,4.50
2023-02-02T22:39:44.209Z,4.60
2023-02-02T22:42:12.416Z,4.60
2023-02-02T22:44:40.495Z,4.60
2023-02-02T22:47:08.867Z,4.70
2023-02-02T22:49:38.354Z,4.40
2023-02-02T22:52:06.538Z,4.50
2023-02-02T22:54:34.688Z,4.50
2023-02-02T22:57:02.791Z,4.50
2023-02-02T22:59:31.128Z,4.30
2023-02-02T23:01:59.195Z,4.20
2023-02-02T23:04:27.271Z,4.10
2023-02-02T23:06:57.044Z,4.30
2023-02-02T23:09:25.351Z,4.10
2023-02-02T23:11:53.433Z,4.30
2023-02-02T23:14:21.549Z,4.20
2023-02-02T23:16:49.652Z,4.30
2023-02-02T23:19:17.740Z,4.50
2023-02-02T23:21:46.091Z,4.40
2023-02-02T23:24:15.584Z,4.40
2023-02-02T23:26:43.695Z,4.40
2023-02-02T23:29:12.050Z,4.50
2023-02-02T23:31:40.225Z,4.50
2023-02-02T23:34:08.694Z,4.50
2023-02-02T23:36:36.804Z,4.50
2023-02-02T23:39:05.175Z,4.50
2023-02-02T23:41:34.668Z,4.70
2023-02-02T23:44:02.711Z,4.70
2023-02-02T23:46:31.732Z,4.70
2023-02-02T23:49:01.018Z,4.70
2023-02-02T23:51:29.196Z,4.70
2023-02-02T23:53:57.794Z,4.80
2023-02-02T23:56:26.140Z,4.80
2023-02-02T23:58:57.398Z,4.80
